Aeroporto :
LOGIN :

Iscrizione | Disclaimer

   EN    FR    IT 

 










Sommario :    VFR   VFR Marginale   IFR   IFR Intensivo   IFR Molto Intensivo
Visibilità : 
Base nubi : 
>= 8 km
>= 3000ft
5 / 8 km
1000 / 3000 ft
1500m / 5 km
500 / 1000 ft
800 / 1500m
200 / 500 ft
< 800m
< 200 ft
Simboli :   Temporali  Nebbia  Neve Forte  Precipitazioni Forti  Vento > 20 kt
SIGMETs :   Varie  Temporali  Ghiacco  Turbolenza  Onda orograficha  Ceneri Vulcaniche






- Altitudine del aeroporto : 122 ft
- Codice IATA : TXL


EDDT - Berlin Tegel Int.

ULTIMO METAR :
  • 041920Z 14004KT 110V170 9999 FEW043TCU BKN048 17/14 Q0992 TEMPO SHRA

METARs OBSOLETI :
  • 041850Z 15005KT 9999 FEW044TCU 18/14 Q0992 NOSIG
  • 041820Z 16007KT 130V190 9999 -RA SCT046 18/13 Q0992 NOSIG
  • 041750Z 17009KT 130V200 9999 -RA NSC 18/12 Q0992 NOSIG
  • 041720Z 17010KT 9999 -RA NSC 19/12 Q0992 NOSIG
  • 041650Z 16008KT 9999 -RA NSC 19/13 Q0992 NOSIG

TAF TAF EDDT
Valido dal 04 a 18 ore il 05 a 18 ore UTC


041700Z 0418/0518 18010KT 9999 SCT040
PROB30
TEMPO 0418/0421 21015G30KT TSRA BKN025CB
BECMG 0420/0423 25008KT
TEMPO 0421/0506 BKN012



MetMap, La meteo Aeronautica in un colpo d'occhio ! - Copyright ORBIFLY Dicembre 2007 - Disclaimer

ORBIFLY MET'MAP TEAM :

Programmazione e sviluppo : Alexandra Zaïnal
Concezione : Baudouin d'Aumeries
Aiuto per la programmazione : Marc-Olivier Méhu
Supporto tecnico e logistico : Manuel Goepfert
Aiuto per la traduzione : Arnaldo La Scala

Contatto : metmap@orbifly.com




FONTI E CREDITI :

   NOAA